createdAt,value
2022-11-23T00:01:23.425Z,22.90
2022-11-23T00:03:54.000Z,48.00
2022-11-23T00:06:23.070Z,31.50
2022-11-23T00:08:51.927Z,42.20
2022-11-23T00:11:21.904Z,44.70
2022-11-23T00:16:20.478Z,30.50
2022-11-23T00:18:48.631Z,27.20
2022-11-23T00:21:17.738Z,30.30
2022-11-23T00:23:45.695Z,36.00
2022-11-23T00:26:14.193Z,33.60
2022-11-23T00:28:42.231Z,36.30
2022-11-23T00:31:13.755Z,25.50
2022-11-23T00:33:42.225Z,19.80
2022-11-23T00:36:15.239Z,24.20
2022-11-23T00:38:44.145Z,31.50
2022-11-23T00:41:18.936Z,23.70
2022-11-23T00:43:47.489Z,30.20
2022-11-23T00:46:17.842Z,19.20
2022-11-23T00:48:48.216Z,17.20
2022-11-23T00:51:19.277Z,28.50
2022-11-23T00:53:47.308Z,29.50
2022-11-23T00:56:16.316Z,23.20
2022-11-23T00:58:51.851Z,21.70
2022-11-23T01:01:22.928Z,27.70
2022-11-23T01:03:53.712Z,29.10
2022-11-23T01:06:24.366Z,16.60
2022-11-23T01:08:58.951Z,12.00
2022-11-23T01:11:29.165Z,19.40
2022-11-23T01:13:56.967Z,30.30
2022-11-23T01:16:30.915Z,33.10
2022-11-23T01:19:03.656Z,34.90
2022-11-23T01:21:33.917Z,26.80
2022-11-23T01:24:09.243Z,18.50
2022-11-23T01:26:40.952Z,17.30
2022-11-23T01:29:08.917Z,27.00
2022-11-23T01:31:45.950Z,12.70
2022-11-23T01:34:16.032Z,23.60
2022-11-23T01:36:44.470Z,18.30
2022-11-23T01:39:12.484Z,18.80
2022-11-23T01:41:43.022Z,30.50
2022-11-23T01:44:24.102Z,28.30
2022-11-23T01:46:57.137Z,28.50
2022-11-23T01:49:27.655Z,24.10
2022-11-23T01:51:59.954Z,9.00
2022-11-23T01:54:48.086Z,14.30
2022-11-23T01:57:26.470Z,19.30
2022-11-23T01:59:55.513Z,13.90
2022-11-23T02:02:23.910Z,15.90
2022-11-23T02:04:55.103Z,15.10
2022-11-23T02:07:24.278Z,31.00
2022-11-23T02:09:52.752Z,23.40
2022-11-23T02:12:20.517Z,17.10
2022-11-23T02:14:48.187Z,22.70
2022-11-23T02:17:17.273Z,5.50
2022-11-23T02:20:06.678Z,27.70
2022-11-23T02:23:06.135Z,27.90
2022-11-23T02:25:52.632Z,8.10
2022-11-23T02:28:32.821Z,12.00
2022-11-23T02:31:02.132Z,17.40
2022-11-23T02:33:30.650Z,8.70
2022-11-23T02:36:00.831Z,18.70
2022-11-23T02:38:32.924Z,17.60
2022-11-23T02:41:01.082Z,20.70
2022-11-23T02:43:28.815Z,20.70
2022-11-23T02:45:59.497Z,9.40
2022-11-23T02:48:29.402Z,7.70
2022-11-23T02:50:57.111Z,16.20
2022-11-23T02:53:25.123Z,22.10
2022-11-23T02:55:54.069Z,21.00
2022-11-23T02:58:21.720Z,27.10
2022-11-23T03:00:49.443Z,23.20
2022-11-23T03:03:18.447Z,23.30
2022-11-23T03:05:46.070Z,25.40
2022-11-23T03:08:13.902Z,24.50
2022-11-23T03:10:41.657Z,9.70
2022-11-23T03:13:09.822Z,23.70
2022-11-23T03:15:38.731Z,19.30
2022-11-23T03:18:06.687Z,25.10
2022-11-23T03:20:34.477Z,17.40
2022-11-23T03:23:02.318Z,14.00
2022-11-23T03:25:30.007Z,19.60
2022-11-23T03:27:57.901Z,28.10
2022-11-23T03:30:25.656Z,31.50
2022-11-23T03:32:54.464Z,26.90
2022-11-23T03:35:22.271Z,14.90
2022-11-23T03:38:19.154Z,9.80
2022-11-23T03:40:47.579Z,17.10
2022-11-23T03:43:35.599Z,14.40
2022-11-23T03:46:03.394Z,25.40
2022-11-23T03:48:31.189Z,16.70
2022-11-23T03:50:59.042Z,8.60
2022-11-23T03:53:26.742Z,13.40
2022-11-23T03:55:56.276Z,24.10
2022-11-23T03:58:24.980Z,16.70
2022-11-23T04:00:52.837Z,8.10
2022-11-23T04:03:20.729Z,24.10
2022-11-23T04:06:03.517Z,25.60
2022-11-23T04:08:50.312Z,23.60
2022-11-23T04:11:24.629Z,22.10
2022-11-23T04:13:52.335Z,22.30
2022-11-23T04:16:20.185Z,23.00
2022-11-23T04:18:48.030Z,9.50
2022-11-23T04:21:15.743Z,19.60
2022-11-23T04:23:44.233Z,23.10
2022-11-23T04:26:12.306Z,6.60
2022-11-23T04:28:42.195Z,23.30
2022-11-23T04:31:10.486Z,16.70
2022-11-23T04:33:49.359Z,14.70
2022-11-23T04:36:18.341Z,21.00
2022-11-23T04:38:46.061Z,27.00
2022-11-23T04:41:15.533Z,17.00
2022-11-23T04:43:43.192Z,28.30
2022-11-23T04:46:12.461Z,22.60
2022-11-23T04:48:40.185Z,20.30
2022-11-23T04:51:08.461Z,12.10
2022-11-23T04:53:38.010Z,10.70
2022-11-23T04:56:06.479Z,18.80
2022-11-23T04:58:37.330Z,11.00
2022-11-23T05:01:05.970Z,12.10
2022-11-23T05:03:35.419Z,13.00
2022-11-23T05:06:07.425Z,12.50
2022-11-23T05:08:39.933Z,21.00
2022-11-23T05:11:22.663Z,27.70
2022-11-23T05:13:50.832Z,20.00
2022-11-23T05:16:18.839Z,21.40
2022-11-23T05:18:46.528Z,19.30
2022-11-23T05:21:14.313Z,19.60
2022-11-23T05:23:42.572Z,15.90
2022-11-23T05:26:10.892Z,21.10
2022-11-23T05:28:41.444Z,16.40
2022-11-23T05:31:12.351Z,20.20
2022-11-23T05:33:40.545Z,17.70
2022-11-23T05:36:09.670Z,12.30
2022-11-23T05:38:41.752Z,6.50
2022-11-23T05:41:13.781Z,13.30
2022-11-23T05:43:43.889Z,7.90
2022-11-23T05:46:14.083Z,12.10
2022-11-23T05:48:42.037Z,24.00
2022-11-23T05:51:11.392Z,20.40
2022-11-23T05:53:44.387Z,17.90
2022-11-23T05:56:38.911Z,16.70
2022-11-23T05:59:16.341Z,18.20
2022-11-23T06:01:47.655Z,12.80
2022-11-23T06:04:21.460Z,5.90
2022-11-23T06:06:51.998Z,14.30
2022-11-23T06:09:20.857Z,6.50
2022-11-23T06:11:49.614Z,10.70
2022-11-23T06:14:20.930Z,21.90
2022-11-23T06:16:48.871Z,10.60
2022-11-23T06:19:37.191Z,8.60
2022-11-23T06:22:05.544Z,9.60
2022-11-23T06:24:36.117Z,5.80
2022-11-23T06:27:33.072Z,9.80
2022-11-23T06:30:01.128Z,8.60
2022-11-23T06:32:29.046Z,17.70
2022-11-23T06:35:00.766Z,8.60
2022-11-23T06:37:30.434Z,15.70
2022-11-23T06:39:58.100Z,19.90
2022-11-23T06:42:42.056Z,21.20
2022-11-23T06:45:17.080Z,10.30
2022-11-23T06:47:45.240Z,17.20
2022-11-23T06:50:14.520Z,9.00
2022-11-23T06:52:43.681Z,16.70
2022-11-23T06:55:11.553Z,19.10
2022-11-23T06:57:41.701Z,14.50
2022-11-23T07:00:11.390Z,8.30
2022-11-23T07:02:39.392Z,22.70
2022-11-23T07:28:25.679Z,14.70
2022-11-23T07:30:54.077Z,16.60
2022-11-23T07:33:22.161Z,15.50
2022-11-23T07:35:50.116Z,17.20
2022-11-23T07:38:17.978Z,19.70
2022-11-23T07:40:51.264Z,15.80
2022-11-23T07:43:36.763Z,16.80
2022-11-23T07:46:04.588Z,15.80
2022-11-23T07:48:36.330Z,17.30
2022-11-23T07:51:04.468Z,13.10
2022-11-23T07:53:32.115Z,8.20
2022-11-23T07:55:59.777Z,19.40
2022-11-23T07:58:27.668Z,16.50
2022-11-23T08:00:55.501Z,12.10
2022-11-23T08:03:28.172Z,11.80
2022-11-23T08:05:56.805Z,10.70
2022-11-23T08:08:24.933Z,11.40
2022-11-23T08:10:54.270Z,3.50
2022-11-23T08:15:54.772Z,5.80
2022-11-23T08:18:24.306Z,13.90
2022-11-23T08:20:52.722Z,6.70
2022-11-23T08:23:21.102Z,13.10
2022-11-23T08:25:50.246Z,9.70
2022-11-23T08:28:18.355Z,16.50
2022-11-23T08:30:46.578Z,16.50
2022-11-23T08:33:15.182Z,7.40
2022-11-23T08:35:44.220Z,12.40
2022-11-23T08:38:13.047Z,12.50
2022-11-23T08:40:41.243Z,11.00
2022-11-23T08:43:09.068Z,19.70
2022-11-23T08:45:36.905Z,18.30
2022-11-23T08:48:05.049Z,28.90
2022-11-23T08:50:34.548Z,13.10
2022-11-23T08:53:02.576Z,12.70
2022-11-23T08:55:30.415Z,12.70
2022-11-23T08:57:59.430Z,14.20
2022-11-23T09:00:28.199Z,12.10
2022-11-23T09:02:59.949Z,11.70
2022-11-23T09:05:29.694Z,19.50
2022-11-23T09:08:01.584Z,12.60
2022-11-23T09:10:29.959Z,18.80
2022-11-23T09:12:59.184Z,10.30
2022-11-23T09:15:26.965Z,9.20
2022-11-23T09:17:54.765Z,8.40
2022-11-23T09:20:22.780Z,5.40
2022-11-23T09:22:52.498Z,11.50
2022-11-23T09:25:21.023Z,12.40
2022-11-23T09:27:49.612Z,13.40
2022-11-23T09:30:17.456Z,14.00
2022-11-23T09:32:45.228Z,8.30
2022-11-23T09:35:13.016Z,8.80
2022-11-23T09:37:40.860Z,13.10
2022-11-23T09:40:14.928Z,11.10
2022-11-23T09:43:24.106Z,7.90
2022-11-23T09:45:54.905Z,13.90
2022-11-23T09:48:52.039Z,14.90
2022-11-23T09:51:23.286Z,19.30
2022-11-23T09:54:02.956Z,21.50
2022-11-23T09:56:34.059Z,15.00
2022-11-23T09:59:10.680Z,21.20
2022-11-23T10:01:38.879Z,23.90
2022-11-23T10:04:07.393Z,15.10
2022-11-23T10:06:40.450Z,9.40
2022-11-23T10:09:17.397Z,10.70
2022-11-23T10:12:05.426Z,21.10
2022-11-23T10:14:33.659Z,9.40
2022-11-23T10:17:07.231Z,19.30
2022-11-23T10:20:13.299Z,8.30
2022-11-23T10:22:56.274Z,10.70
2022-11-23T10:25:25.727Z,14.60
2022-11-23T10:28:00.689Z,10.50
2022-11-23T10:30:28.571Z,9.50
2022-11-23T10:32:56.357Z,11.00
2022-11-23T10:35:33.247Z,13.10
2022-11-23T10:38:21.898Z,17.20
2022-11-23T10:40:57.257Z,18.40
2022-11-23T10:43:29.557Z,19.00
2022-11-23T10:46:24.409Z,13.00
2022-11-23T10:48:53.751Z,12.30
2022-11-23T10:51:24.459Z,12.70
2022-11-23T10:53:59.548Z,11.30
2022-11-23T10:56:32.753Z,9.60
2022-11-23T10:59:00.514Z,23.60
2022-11-23T11:01:30.258Z,8.80
2022-11-23T11:04:04.012Z,18.80
2022-11-23T11:06:36.058Z,30.80
2022-11-23T11:09:09.515Z,18.20
2022-11-23T11:11:46.659Z,17.60
2022-11-23T11:14:17.435Z,20.40
2022-11-23T11:16:58.452Z,16.60
2022-11-23T11:19:32.489Z,12.30
2022-11-23T11:22:21.457Z,17.30
2022-11-23T11:24:49.493Z,5.00
2022-11-23T11:27:21.729Z,14.10
2022-11-23T11:29:53.238Z,10.70
2022-11-23T11:32:34.318Z,12.60
2022-11-23T11:35:22.575Z,8.30
2022-11-23T11:40:38.508Z,15.20
2022-11-23T11:43:27.046Z,5.00
2022-11-23T11:48:55.691Z,6.30
2022-11-23T11:51:32.224Z,7.30
2022-11-23T11:54:13.805Z,17.50
2022-11-23T11:56:45.376Z,16.50
2022-11-23T11:59:33.335Z,15.80
2022-11-23T12:02:19.542Z,10.70
2022-11-23T12:05:10.147Z,16.90
2022-11-23T12:07:53.431Z,15.80
2022-11-23T12:10:48.507Z,10.30
2022-11-23T12:13:19.602Z,14.60
2022-11-23T12:16:14.942Z,17.80
2022-11-23T12:19:06.726Z,19.30
2022-11-23T12:21:57.289Z,20.70
2022-11-23T12:25:11.529Z,18.00
2022-11-23T12:27:57.751Z,15.30
2022-11-23T12:30:40.589Z,6.80
2022-11-23T12:33:23.525Z,33.20
2022-11-23T12:36:02.040Z,18.70
2022-11-23T12:38:55.301Z,8.10
2022-11-23T12:41:24.012Z,8.60
2022-11-23T12:44:33.452Z,17.20
2022-11-23T12:47:13.272Z,21.00
2022-11-23T12:49:51.954Z,14.00
2022-11-23T12:52:35.632Z,23.90
2022-11-23T12:55:20.501Z,14.40
2022-11-23T12:58:00.297Z,15.30
2022-11-23T13:00:37.584Z,15.10
2022-11-23T13:03:18.093Z,21.40
2022-11-23T13:06:07.651Z,22.90
2022-11-23T13:08:35.381Z,21.20
2022-11-23T13:11:09.068Z,21.70
2022-11-23T13:13:55.490Z,18.40
2022-11-23T13:16:42.424Z,25.40
2022-11-23T13:19:45.702Z,16.50
2022-11-23T13:22:18.624Z,17.40
2022-11-23T13:25:07.786Z,14.50
2022-11-23T13:27:45.024Z,17.40
2022-11-23T13:30:51.947Z,18.70
2022-11-23T13:33:25.270Z,14.10
2022-11-23T13:36:02.114Z,20.30
2022-11-23T13:38:43.891Z,11.10
2022-11-23T13:41:44.151Z,24.40
2022-11-23T13:44:20.682Z,23.10
2022-11-23T13:47:11.959Z,23.00
2022-11-23T13:49:43.977Z,30.60
2022-11-23T13:52:20.985Z,22.50
2022-11-23T13:55:10.742Z,21.80
2022-11-23T13:57:40.619Z,18.60
2022-11-23T14:00:46.224Z,19.90
2022-11-23T14:03:42.162Z,8.20
2022-11-23T14:06:24.536Z,21.90
2022-11-23T14:09:12.928Z,30.40
2022-11-23T14:14:43.681Z,26.20
2022-11-23T14:17:31.186Z,31.00
2022-11-23T14:23:02.334Z,24.80
2022-11-23T14:25:55.967Z,17.10
2022-11-23T14:28:55.333Z,24.20
2022-11-23T14:32:01.024Z,23.00
2022-11-23T14:34:41.198Z,23.90
2022-11-23T14:37:22.955Z,8.80
2022-11-23T14:39:56.644Z,11.40
2022-11-23T14:42:28.286Z,21.80
2022-11-23T14:45:02.871Z,19.90
2022-11-23T14:47:33.717Z,19.90
2022-11-23T14:50:01.493Z,7.20
2022-11-23T14:52:33.273Z,38.00
2022-11-23T14:55:05.848Z,24.80
2022-11-23T14:57:42.340Z,24.40
2022-11-23T15:00:38.952Z,25.10
2022-11-23T15:03:34.573Z,40.60
2022-11-23T15:06:09.305Z,48.80
2022-11-23T15:09:04.825Z,37.00
2022-11-23T15:11:36.476Z,38.30
2022-11-23T15:14:25.454Z,22.40
2022-11-23T15:16:53.223Z,21.80
2022-11-23T15:19:28.978Z,17.30
2022-11-23T15:21:57.162Z,19.80
2022-11-23T15:24:26.989Z,19.00
2022-11-23T15:27:10.824Z,23.60
2022-11-23T15:29:40.168Z,18.10
2022-11-23T15:32:41.177Z,26.40
2022-11-23T15:35:14.211Z,22.20
2022-11-23T15:37:50.037Z,14.10
2022-11-23T15:40:19.495Z,26.40
2022-11-23T15:42:49.731Z,25.30
2022-11-23T15:46:01.789Z,31.60
2022-11-23T15:48:35.250Z,22.10
2022-11-23T15:51:06.320Z,23.50
2022-11-23T15:53:49.681Z,33.30
2022-11-23T15:56:29.298Z,25.40
2022-11-23T15:59:00.222Z,23.80
2022-11-23T16:01:28.427Z,34.50
2022-11-23T16:04:02.551Z,27.20
2022-11-23T16:06:36.685Z,27.80
2022-11-23T16:09:56.785Z,27.50
2022-11-23T16:12:33.842Z,43.70
2022-11-23T16:15:32.657Z,109.00
2022-11-23T16:18:02.316Z,48.70
2022-11-23T16:20:31.086Z,32.20
2022-11-23T16:23:00.671Z,26.60
2022-11-23T16:25:28.568Z,26.60
2022-11-23T16:28:06.590Z,37.70
2022-11-23T16:30:38.377Z,67.20
2022-11-23T16:33:10.903Z,46.90
2022-11-23T16:35:38.698Z,37.60
2022-11-23T16:38:06.823Z,34.60
2022-11-23T16:40:34.600Z,33.60
2022-11-23T16:43:04.086Z,18.30
2022-11-23T16:45:32.925Z,31.90
2022-11-23T16:48:02.509Z,26.90
2022-11-23T16:50:32.850Z,28.40
2022-11-23T16:53:15.843Z,31.90
2022-11-23T16:55:45.503Z,41.30
2022-11-23T16:58:15.710Z,49.10
2022-11-23T17:00:44.027Z,37.40
2022-11-23T17:03:19.106Z,33.00
2022-11-23T17:05:48.302Z,33.10
2022-11-23T17:08:23.043Z,29.10
2022-11-23T17:10:52.253Z,22.50
2022-11-23T17:13:26.662Z,30.30
2022-11-23T17:15:54.444Z,37.30
2022-11-23T17:18:22.495Z,35.40
2022-11-23T17:20:50.458Z,28.80
2022-11-23T17:23:18.342Z,40.70
2022-11-23T17:25:46.099Z,30.60
2022-11-23T17:28:17.103Z,36.30
2022-11-23T17:30:44.990Z,25.20
2022-11-23T17:33:13.084Z,19.80
2022-11-23T17:35:41.169Z,29.70
2022-11-23T17:38:15.358Z,25.80
2022-11-23T17:40:45.947Z,19.30
2022-11-23T17:43:14.269Z,41.10
2022-11-23T17:45:43.703Z,50.10
2022-11-23T17:48:12.882Z,57.60
2022-11-23T17:50:40.832Z,32.40
2022-11-23T17:53:09.885Z,47.40
2022-11-23T17:55:37.930Z,43.60
2022-11-23T17:58:05.924Z,86.30
2022-11-23T18:00:38.286Z,47.10
2022-11-23T18:03:06.134Z,20.50
2022-11-23T18:05:34.125Z,13.70
2022-11-23T18:08:01.979Z,46.50
2022-11-23T18:10:29.783Z,37.90
2022-11-23T18:12:57.830Z,28.10
2022-11-23T18:15:25.998Z,27.80
2022-11-23T18:17:54.175Z,22.30
2022-11-23T18:20:22.403Z,21.80
2022-11-23T18:22:50.415Z,25.30
2022-11-23T18:25:18.325Z,15.30
2022-11-23T18:27:45.979Z,34.00
2022-11-23T18:30:16.502Z,37.40
2022-11-23T18:32:44.333Z,40.60
2022-11-23T18:35:12.003Z,37.50
2022-11-23T18:37:39.759Z,25.70
2022-11-23T18:40:07.912Z,27.70
2022-11-23T18:42:35.683Z,14.40
2022-11-23T18:45:03.788Z,18.00
2022-11-23T18:47:32.256Z,19.40
2022-11-23T18:50:06.164Z,40.60
2022-11-23T18:52:34.660Z,37.20
2022-11-23T18:55:02.755Z,33.20
2022-11-23T18:57:30.475Z,28.00
2022-11-23T18:59:58.930Z,31.30
2022-11-23T19:02:27.113Z,24.10
2022-11-23T19:04:54.866Z,25.20
2022-11-23T19:07:26.818Z,25.70
2022-11-23T19:09:56.317Z,30.80
2022-11-23T19:12:24.079Z,30.90
2022-11-23T19:14:51.919Z,26.40
2022-11-23T19:17:19.900Z,39.70
2022-11-23T19:19:47.617Z,39.40
2022-11-23T19:22:15.286Z,40.00
2022-11-23T19:24:43.013Z,30.70
2022-11-23T19:27:10.649Z,24.30
2022-11-23T19:29:39.436Z,29.30
2022-11-23T19:32:07.525Z,10.40
2022-11-23T19:34:35.928Z,21.00
2022-11-23T19:37:03.601Z,41.50
2022-11-23T19:39:32.636Z,30.20
2022-11-23T19:42:00.541Z,30.00
2022-11-23T19:44:28.323Z,25.70
2022-11-23T19:46:56.180Z,9.40
2022-11-23T19:49:25.516Z,15.40
2022-11-23T19:51:54.137Z,22.60
2022-11-23T19:54:22.122Z,25.10
2022-11-23T19:56:51.071Z,48.60
2022-11-23T19:59:19.191Z,63.90
2022-11-23T20:01:46.974Z,44.00
2022-11-23T20:04:15.181Z,25.80
2022-11-23T20:06:43.611Z,29.00
2022-11-23T20:09:23.558Z,10.70
2022-11-23T20:11:51.936Z,27.60
2022-11-23T20:14:19.904Z,21.40
2022-11-23T20:16:47.908Z,23.30
2022-11-23T20:19:15.749Z,56.20
2022-11-23T20:21:43.883Z,61.70
2022-11-23T20:24:13.619Z,65.50
2022-11-23T20:26:42.297Z,35.60
2022-11-23T20:29:13.685Z,35.40
2022-11-23T20:31:41.749Z,21.20
2022-11-23T20:34:14.154Z,24.80
2022-11-23T20:36:44.598Z,33.10
2022-11-23T20:39:12.725Z,29.20
2022-11-23T20:41:40.437Z,27.00
2022-11-23T20:44:13.448Z,26.60
2022-11-23T20:49:30.218Z,61.20
2022-11-23T20:51:58.936Z,55.80
2022-11-23T20:54:27.089Z,36.20
2022-11-23T20:56:54.999Z,28.80
2022-11-23T20:59:23.841Z,30.30
2022-11-23T21:01:52.408Z,30.30
2022-11-23T21:04:20.221Z,20.40
2022-11-23T21:06:47.962Z,27.60
2022-11-23T21:09:17.054Z,26.10
2022-11-23T21:12:03.566Z,47.90
2022-11-23T21:14:32.835Z,57.80
2022-11-23T21:17:01.195Z,49.50
2022-11-23T21:19:34.782Z,40.50
2022-11-23T21:22:14.059Z,33.10
2022-11-23T21:24:41.855Z,27.60
2022-11-23T21:27:12.900Z,21.40
2022-11-23T21:29:40.596Z,19.90
2022-11-23T21:32:08.404Z,27.30
2022-11-23T21:34:36.464Z,44.00
2022-11-23T21:37:04.503Z,54.30
2022-11-23T21:39:33.007Z,42.20
2022-11-23T21:42:01.165Z,28.90
2022-11-23T21:44:29.223Z,25.10
2022-11-23T21:46:56.998Z,26.40
2022-11-23T21:49:27.748Z,31.80
2022-11-23T21:51:55.435Z,28.70
2022-11-23T21:54:23.114Z,23.60
2022-11-23T21:56:50.779Z,30.40
2022-11-23T21:59:18.693Z,36.30
2022-11-23T22:01:46.410Z,44.80
2022-11-23T22:04:15.751Z,48.90
2022-11-23T22:06:45.062Z,37.90
2022-11-23T22:09:13.729Z,26.60
2022-11-23T22:11:43.182Z,32.00
2022-11-23T22:14:13.449Z,25.50
2022-11-23T22:16:46.229Z,17.50
2022-11-23T22:19:15.698Z,19.60
2022-11-23T22:21:45.297Z,14.80
2022-11-23T22:24:15.478Z,23.10
2022-11-23T22:26:43.718Z,52.80
2022-11-23T22:29:11.781Z,48.90
2022-11-23T22:31:40.260Z,34.60
2022-11-23T22:34:11.694Z,26.20
2022-11-23T22:36:39.528Z,30.40
2022-11-23T22:39:08.041Z,31.50
2022-11-23T22:41:37.540Z,29.60
2022-11-23T22:44:07.637Z,26.60
2022-11-23T22:46:35.812Z,18.00
2022-11-23T22:49:04.670Z,34.10
2022-11-23T22:51:33.171Z,41.70
2022-11-23T22:54:01.701Z,37.40
2022-11-23T22:56:30.758Z,36.10
2022-11-23T22:58:59.200Z,33.50
2022-11-23T23:01:29.401Z,31.90
2022-11-23T23:03:59.699Z,29.00
2022-11-23T23:06:30.076Z,25.50
2022-11-23T23:08:59.068Z,22.10
2022-11-23T23:11:28.924Z,24.70
2022-11-23T23:13:56.669Z,12.00
2022-11-23T23:16:25.357Z,22.40
2022-11-23T23:18:56.803Z,41.10
2022-11-23T23:21:25.950Z,39.40
2022-11-23T23:23:56.231Z,44.20
2022-11-23T23:26:26.046Z,35.40
2022-11-23T23:31:23.643Z,27.80
2022-11-23T23:33:53.607Z,25.50
2022-11-23T23:36:23.112Z,26.10
2022-11-23T23:38:51.171Z,24.80
2022-11-23T23:41:19.137Z,22.10
2022-11-23T23:43:48.292Z,22.80
2022-11-23T23:46:16.704Z,10.80
2022-11-23T23:48:44.631Z,26.90
2022-11-23T23:51:18.657Z,51.30
2022-11-23T23:53:47.271Z,47.30
2022-11-23T23:56:20.915Z,40.90
2022-11-23T23:58:48.807Z,29.10
